createdAt,value
2023-03-13T00:01:18.121Z,9.90
2023-03-13T00:03:47.857Z,9.90
2023-03-13T00:06:16.841Z,9.90
2023-03-13T00:08:45.971Z,9.90
2023-03-13T00:11:15.683Z,9.90
2023-03-13T00:13:44.647Z,9.90
2023-03-13T00:16:15.007Z,9.90
2023-03-13T00:18:48.765Z,9.90
2023-03-13T00:21:17.225Z,9.90
2023-03-13T00:23:46.062Z,10.00
2023-03-13T00:26:16.312Z,10.00
2023-03-13T00:28:46.141Z,10.00
2023-03-13T00:31:16.638Z,9.90
2023-03-13T00:33:47.773Z,10.00
2023-03-13T00:36:18.021Z,10.00
2023-03-13T00:38:46.512Z,10.00
2023-03-13T00:41:16.983Z,10.10
2023-03-13T00:43:46.384Z,10.10
2023-03-13T00:46:15.983Z,10.10
2023-03-13T00:48:44.332Z,10.10
2023-03-13T00:51:16.867Z,10.10
2023-03-13T00:53:45.757Z,10.10
2023-03-13T00:56:16.098Z,10.00
2023-03-13T00:58:46.079Z,9.90
2023-03-13T01:01:15.876Z,9.80
2023-03-13T01:03:45.801Z,9.80
2023-03-13T01:06:17.465Z,9.80
2023-03-13T01:08:46.993Z,9.70
2023-03-13T01:11:18.237Z,9.70
2023-03-13T01:13:47.594Z,9.70
2023-03-13T01:16:17.694Z,9.70
2023-03-13T01:18:48.142Z,9.70
2023-03-13T01:21:19.798Z,9.70
2023-03-13T01:23:50.234Z,9.60
2023-03-13T01:26:18.538Z,9.60
2023-03-13T01:28:47.402Z,9.70
2023-03-13T01:31:19.554Z,9.60
2023-03-13T01:33:49.230Z,9.60
2023-03-13T01:36:19.751Z,9.60
2023-03-13T01:38:50.245Z,9.70
2023-03-13T01:41:19.061Z,9.70
2023-03-13T01:43:47.895Z,9.70
2023-03-13T01:46:18.657Z,9.70
2023-03-13T01:49:17.397Z,9.70
2023-03-13T01:52:02.504Z,9.70
2023-03-13T01:54:36.139Z,9.70
2023-03-13T01:57:07.616Z,9.70
2023-03-13T01:59:41.578Z,9.70
2023-03-13T02:02:10.733Z,9.70
2023-03-13T02:04:44.288Z,9.70
2023-03-13T02:07:19.500Z,9.60
2023-03-13T02:09:51.444Z,9.60
2023-03-13T02:12:25.391Z,9.60
2023-03-13T02:14:54.776Z,9.60
2023-03-13T02:17:23.509Z,9.60
2023-03-13T02:19:53.028Z,9.60
2023-03-13T02:22:30.616Z,9.60
2023-03-13T02:25:04.130Z,9.50
2023-03-13T02:27:34.001Z,9.50
2023-03-13T02:30:02.468Z,9.50
2023-03-13T02:32:32.325Z,9.50
2023-03-13T02:35:05.574Z,9.50
2023-03-13T02:37:34.765Z,9.50
2023-03-13T02:40:09.988Z,9.50
2023-03-13T02:42:42.170Z,9.50
2023-03-13T02:45:12.541Z,9.50
2023-03-13T02:47:41.040Z,9.50
2023-03-13T02:50:11.304Z,9.50
2023-03-13T02:52:44.545Z,9.50
2023-03-13T02:55:18.103Z,9.50
2023-03-13T02:57:48.187Z,9.50
2023-03-13T03:00:17.952Z,9.50
2023-03-13T03:02:47.026Z,9.50
2023-03-13T03:05:15.919Z,9.50
2023-03-13T03:07:44.231Z,9.50
2023-03-13T03:10:13.726Z,9.50
2023-03-13T03:12:43.002Z,9.50
2023-03-13T03:15:14.031Z,9.50
2023-03-13T03:17:46.253Z,9.50
2023-03-13T03:20:14.642Z,9.60
2023-03-13T03:22:44.684Z,9.60
2023-03-13T03:25:13.208Z,9.60
2023-03-13T03:27:41.465Z,9.60
2023-03-13T03:30:13.350Z,9.60
2023-03-13T03:32:41.690Z,9.60
2023-03-13T03:35:10.617Z,9.60
2023-03-13T03:37:39.177Z,9.70
2023-03-13T03:40:09.770Z,9.70
2023-03-13T03:42:38.084Z,9.70
2023-03-13T03:45:07.044Z,9.80
2023-03-13T03:47:36.712Z,9.70
2023-03-13T03:50:05.580Z,9.80
2023-03-13T03:52:41.994Z,9.80
2023-03-13T03:55:11.240Z,9.80
2023-03-13T03:57:39.501Z,9.80
2023-03-13T04:00:15.792Z,9.80
2023-03-13T04:02:52.519Z,9.80
2023-03-13T04:05:21.119Z,9.80
2023-03-13T04:07:50.321Z,9.90
2023-03-13T04:10:18.961Z,9.90
2023-03-13T04:12:47.302Z,9.90
2023-03-13T04:15:15.793Z,9.90
2023-03-13T04:17:44.198Z,10.00
2023-03-13T04:20:14.634Z,9.90
2023-03-13T04:22:43.698Z,10.00
2023-03-13T04:25:12.952Z,10.00
2023-03-13T04:27:41.473Z,10.10
2023-03-13T04:30:11.561Z,10.10
2023-03-13T04:33:00.022Z,10.10
2023-03-13T04:35:56.130Z,10.10
2023-03-13T04:38:53.214Z,10.10
2023-03-13T04:41:39.639Z,10.10
2023-03-13T04:44:16.428Z,10.10
2023-03-13T04:46:56.774Z,10.10
2023-03-13T04:49:43.232Z,10.10
2023-03-13T04:52:29.042Z,10.20
2023-03-13T04:55:21.367Z,10.20
2023-03-13T04:58:08.950Z,10.20
2023-03-13T05:00:40.689Z,10.20
2023-03-13T05:03:30.944Z,10.20
2023-03-13T05:06:28.306Z,10.30
2023-03-13T05:09:23.790Z,10.30
2023-03-13T05:12:12.264Z,10.30
2023-03-13T05:15:06.917Z,10.30
2023-03-13T05:17:47.204Z,10.20
2023-03-13T05:20:24.117Z,10.30
2023-03-13T05:22:58.538Z,10.30
2023-03-13T05:25:50.296Z,10.30
2023-03-13T05:28:27.750Z,10.30
2023-03-13T05:31:16.273Z,10.30
2023-03-13T05:34:14.147Z,10.40
2023-03-13T05:36:42.334Z,10.40
2023-03-13T05:39:16.176Z,10.50
2023-03-13T05:41:45.739Z,10.50
2023-03-13T05:44:32.576Z,10.60
2023-03-13T05:47:18.998Z,10.60
2023-03-13T05:50:07.978Z,10.60
2023-03-13T05:52:55.036Z,10.60
2023-03-13T05:55:36.668Z,10.60
2023-03-13T05:58:38.290Z,10.70
2023-03-13T06:01:17.686Z,10.80
2023-03-13T06:03:52.621Z,10.80
2023-03-13T06:06:21.652Z,10.80
2023-03-13T06:08:54.926Z,10.80
2023-03-13T06:11:25.664Z,10.90
2023-03-13T06:13:55.914Z,10.90
2023-03-13T06:16:36.584Z,11.00
2023-03-13T06:19:19.634Z,11.00
2023-03-13T06:21:47.893Z,11.00
2023-03-13T06:24:16.141Z,11.10
2023-03-13T06:26:44.404Z,11.00
2023-03-13T06:29:14.009Z,11.10
2023-03-13T06:31:42.394Z,11.10
2023-03-13T06:34:12.673Z,11.10
2023-03-13T06:36:42.150Z,11.10
2023-03-13T06:39:10.970Z,11.20
2023-03-13T06:41:39.251Z,11.20
2023-03-13T06:44:07.433Z,11.30
2023-03-13T06:46:37.061Z,11.30
2023-03-13T06:49:05.971Z,11.40
2023-03-13T06:51:34.498Z,11.40
2023-03-13T06:54:03.252Z,11.40
2023-03-13T06:56:32.323Z,11.50
2023-03-13T06:59:00.653Z,11.60
2023-03-13T07:01:28.959Z,11.60
2023-03-13T07:03:58.711Z,11.70
2023-03-13T07:06:27.100Z,11.70
2023-03-13T07:08:55.390Z,11.70
2023-03-13T07:11:23.572Z,11.70
2023-03-13T07:13:51.756Z,11.80
2023-03-13T07:16:19.959Z,11.90
2023-03-13T07:18:48.251Z,12.10
2023-03-13T07:21:18.037Z,12.00
2023-03-13T07:23:46.229Z,12.00
2023-03-13T07:26:16.752Z,12.20
2023-03-13T07:28:45.413Z,12.30
2023-03-13T07:31:18.421Z,12.30
2023-03-13T07:33:47.120Z,12.30
2023-03-13T07:36:18.703Z,12.40
2023-03-13T07:38:49.558Z,12.40
2023-03-13T07:41:18.549Z,12.50
2023-03-13T07:43:47.191Z,12.60
2023-03-13T07:46:18.629Z,12.60
2023-03-13T07:48:47.492Z,12.70
2023-03-13T07:51:20.539Z,12.70
2023-03-13T07:53:51.807Z,12.80
2023-03-13T07:56:22.136Z,12.90
2023-03-13T07:58:50.684Z,13.10
2023-03-13T08:01:21.415Z,13.10
2023-03-13T08:03:50.960Z,13.10
2023-03-13T08:06:23.346Z,13.10
2023-03-13T08:08:52.158Z,13.20
2023-03-13T08:11:22.038Z,13.10
2023-03-13T08:13:50.827Z,13.00
2023-03-13T08:16:20.829Z,13.10
2023-03-13T08:18:50.752Z,13.20
2023-03-13T08:21:23.104Z,13.10
2023-03-13T08:23:54.756Z,13.20
2023-03-13T08:26:24.611Z,13.10
2023-03-13T08:28:54.608Z,13.10
2023-03-13T08:31:24.951Z,13.10
2023-03-13T08:33:53.679Z,13.20
2023-03-13T08:36:25.143Z,13.30
2023-03-13T08:38:54.994Z,13.20
2023-03-13T08:41:25.615Z,13.20
2023-03-13T08:43:54.503Z,13.20
2023-03-13T08:46:23.596Z,13.20
2023-03-13T08:48:52.589Z,13.30
2023-03-13T08:51:23.697Z,13.30
2023-03-13T08:53:53.073Z,13.40
2023-03-13T08:56:23.021Z,13.40
2023-03-13T08:58:51.638Z,13.50
2023-03-13T09:01:20.405Z,13.40
2023-03-13T09:03:48.688Z,13.40
2023-03-13T09:06:17.418Z,13.40
2023-03-13T09:08:47.521Z,13.50
2023-03-13T09:11:18.599Z,13.50
2023-03-13T09:13:48.496Z,13.50
2023-03-13T09:16:18.232Z,13.50
2023-03-13T09:18:46.972Z,13.50
2023-03-13T09:21:17.508Z,13.50
2023-03-13T09:23:47.400Z,13.60
2023-03-13T09:26:16.960Z,13.80
2023-03-13T09:28:45.483Z,14.00
2023-03-13T09:31:15.133Z,14.20
2023-03-13T09:33:44.232Z,14.30
2023-03-13T09:36:12.920Z,14.40
2023-03-13T09:38:41.520Z,14.50
2023-03-13T09:41:25.415Z,14.70
2023-03-13T09:43:59.915Z,14.70
2023-03-13T09:46:33.263Z,14.80
2023-03-13T09:49:05.162Z,14.70
2023-03-13T09:51:37.291Z,14.70
2023-03-13T09:54:09.635Z,14.80
2023-03-13T09:56:45.956Z,14.90
2023-03-13T09:59:21.128Z,15.00
2023-03-13T10:01:51.590Z,15.00
2023-03-13T10:04:30.452Z,14.90
2023-03-13T10:07:00.681Z,14.80
2023-03-13T10:09:31.966Z,14.80
2023-03-13T10:12:08.049Z,14.80
2023-03-13T10:14:44.494Z,14.80
2023-03-13T10:17:23.480Z,14.90
2023-03-13T10:19:58.939Z,15.10
2023-03-13T10:22:30.146Z,15.20
2023-03-13T10:25:01.352Z,15.10
2023-03-13T10:27:30.990Z,14.90
2023-03-13T10:29:59.516Z,15.00
2023-03-13T10:32:28.708Z,15.00
2023-03-13T10:34:58.949Z,15.10
2023-03-13T10:37:29.324Z,15.10
2023-03-13T10:40:14.079Z,15.10
2023-03-13T10:42:46.162Z,15.40
2023-03-13T10:45:17.655Z,15.60
2023-03-13T10:47:46.186Z,15.80
2023-03-13T10:50:20.409Z,15.80
2023-03-13T10:52:49.886Z,15.90
2023-03-13T10:55:20.257Z,15.90
2023-03-13T10:57:59.458Z,15.80
2023-03-13T11:00:34.256Z,15.80
2023-03-13T11:03:06.594Z,15.80
2023-03-13T11:05:42.573Z,15.90
2023-03-13T11:08:21.398Z,16.00
2023-03-13T11:11:00.882Z,15.90
2023-03-13T11:13:37.297Z,16.00
2023-03-13T11:16:25.697Z,15.90
2023-03-13T11:19:18.090Z,15.90
2023-03-13T11:21:58.993Z,16.00
2023-03-13T11:24:33.570Z,16.10
2023-03-13T11:27:14.017Z,16.20
2023-03-13T11:29:53.769Z,16.30
2023-03-13T11:32:27.805Z,16.20
2023-03-13T11:35:00.349Z,16.40
2023-03-13T11:37:32.562Z,16.50
2023-03-13T11:40:12.379Z,16.70
2023-03-13T11:43:17.786Z,16.80
2023-03-13T11:46:08.540Z,16.70
2023-03-13T11:49:01.141Z,16.90
2023-03-13T11:51:39.902Z,16.90
2023-03-13T11:54:33.693Z,16.70
2023-03-13T11:57:08.737Z,16.60
2023-03-13T11:59:44.085Z,16.60
2023-03-13T12:02:22.212Z,16.50
2023-03-13T12:04:55.666Z,16.50
2023-03-13T12:07:29.961Z,16.40
2023-03-13T12:10:04.556Z,16.40
2023-03-13T12:12:40.982Z,16.50
2023-03-13T12:15:21.684Z,16.80
2023-03-13T12:17:55.021Z,17.00
2023-03-13T12:20:27.227Z,17.20
2023-03-13T12:23:03.176Z,17.20
2023-03-13T12:25:39.671Z,17.10
2023-03-13T12:28:24.875Z,17.10
2023-03-13T12:31:00.599Z,17.10
2023-03-13T12:33:35.957Z,17.10
2023-03-13T12:36:12.022Z,17.10
2023-03-13T12:38:43.512Z,17.20
2023-03-13T12:41:24.507Z,17.30
2023-03-13T12:44:07.716Z,17.40
2023-03-13T12:46:45.824Z,17.50
2023-03-13T12:49:51.636Z,17.50
2023-03-13T12:52:48.554Z,17.20
2023-03-13T12:55:50.207Z,17.10
2023-03-13T12:58:30.259Z,17.00
2023-03-13T13:01:03.736Z,17.00
2023-03-13T13:03:36.344Z,17.10
2023-03-13T13:06:10.643Z,17.10
2023-03-13T13:08:43.357Z,17.00
2023-03-13T13:11:36.343Z,16.90
2023-03-13T13:14:28.039Z,16.90
2023-03-13T13:17:01.704Z,16.90
2023-03-13T13:19:48.849Z,17.00
2023-03-13T13:22:51.270Z,17.00
2023-03-13T13:25:35.222Z,17.00
2023-03-13T13:28:27.354Z,17.00
2023-03-13T13:30:57.401Z,16.80
2023-03-13T13:33:43.460Z,16.80
2023-03-13T13:36:31.793Z,16.80
2023-03-13T13:39:00.724Z,16.90
2023-03-13T13:41:39.532Z,16.80
2023-03-13T13:44:24.017Z,16.80
2023-03-13T13:46:52.471Z,16.90
2023-03-13T13:49:22.133Z,17.00
2023-03-13T13:52:31.909Z,17.10
2023-03-13T13:55:00.267Z,17.20
2023-03-13T13:57:37.401Z,17.20
2023-03-13T14:00:19.948Z,17.00
2023-03-13T14:02:52.408Z,16.90
2023-03-13T14:05:23.863Z,16.90
2023-03-13T14:07:58.255Z,16.70
2023-03-13T14:10:34.899Z,16.60
2023-03-13T14:13:12.205Z,16.60
2023-03-13T14:15:44.231Z,16.70
2023-03-13T14:18:17.306Z,16.70
2023-03-13T14:20:55.441Z,16.70
2023-03-13T14:23:40.072Z,16.70
2023-03-13T14:26:13.944Z,16.70
2023-03-13T14:28:45.307Z,16.70
2023-03-13T14:31:24.549Z,16.60
2023-03-13T14:33:53.016Z,16.70
2023-03-13T14:36:21.407Z,16.70
2023-03-13T14:38:57.272Z,16.60
2023-03-13T14:41:30.983Z,16.60
2023-03-13T14:44:18.923Z,16.60
2023-03-13T14:46:47.263Z,16.60
2023-03-13T14:49:19.347Z,16.70
2023-03-13T14:51:50.452Z,16.70
2023-03-13T14:54:32.107Z,16.70
2023-03-13T14:57:16.185Z,16.60
2023-03-13T14:59:46.279Z,16.60
2023-03-13T15:02:20.074Z,16.60
2023-03-13T15:04:59.520Z,16.50
2023-03-13T15:07:36.674Z,16.40
2023-03-13T15:10:19.545Z,16.30
2023-03-13T15:12:47.944Z,16.20
2023-03-13T15:15:17.872Z,16.10
2023-03-13T15:17:46.206Z,16.10
2023-03-13T15:20:17.011Z,16.10
2023-03-13T15:22:46.694Z,16.10
2023-03-13T15:25:18.012Z,16.10
2023-03-13T15:27:46.642Z,16.00
2023-03-13T15:30:19.079Z,16.00
2023-03-13T15:32:48.803Z,15.70
2023-03-13T15:35:27.209Z,15.50
2023-03-13T15:37:56.217Z,15.10
2023-03-13T15:40:25.725Z,14.80
2023-03-13T15:42:54.315Z,14.60
2023-03-13T15:45:24.035Z,14.60
2023-03-13T15:47:52.356Z,14.50
2023-03-13T15:50:25.554Z,14.70
2023-03-13T15:52:54.891Z,14.90
2023-03-13T15:55:23.307Z,15.00
2023-03-13T15:57:52.079Z,15.00
2023-03-13T16:00:25.189Z,15.00
2023-03-13T16:02:53.494Z,15.00
2023-03-13T16:05:21.806Z,15.00
2023-03-13T16:07:49.975Z,15.10
2023-03-13T16:10:23.127Z,15.10
2023-03-13T16:12:52.870Z,15.20
2023-03-13T16:15:21.297Z,15.30
2023-03-13T16:17:51.162Z,15.30
2023-03-13T16:20:22.062Z,15.30
2023-03-13T16:22:53.439Z,15.30
2023-03-13T16:25:23.414Z,15.20
2023-03-13T16:27:53.528Z,15.10
2023-03-13T16:30:25.010Z,15.10
2023-03-13T16:32:54.812Z,15.10
2023-03-13T16:35:23.376Z,15.00
2023-03-13T16:37:52.077Z,15.00
2023-03-13T16:40:22.659Z,15.00
2023-03-13T16:42:50.930Z,15.00
2023-03-13T16:45:19.728Z,14.90
2023-03-13T16:47:48.230Z,14.80
2023-03-13T16:50:23.502Z,14.70
2023-03-13T16:52:52.641Z,14.70
2023-03-13T16:55:24.725Z,14.70
2023-03-13T16:57:54.932Z,14.60
2023-03-13T17:00:24.592Z,14.50
2023-03-13T17:02:53.206Z,14.50
2023-03-13T17:05:23.214Z,14.50
2023-03-13T17:07:52.694Z,14.40
2023-03-13T17:10:23.838Z,14.40
2023-03-13T17:12:52.817Z,14.40
2023-03-13T17:15:21.790Z,14.30
2023-03-13T17:17:52.531Z,14.20
2023-03-13T17:20:24.060Z,14.20
2023-03-13T17:22:53.160Z,14.20
2023-03-13T17:25:21.477Z,14.20
2023-03-13T17:27:49.922Z,14.10
2023-03-13T17:30:22.827Z,14.10
2023-03-13T17:32:51.622Z,14.10
2023-03-13T17:35:21.444Z,14.10
2023-03-13T17:37:51.359Z,14.10
2023-03-13T17:40:21.669Z,14.10
2023-03-13T17:42:50.230Z,14.00
2023-03-13T17:45:21.716Z,14.00
2023-03-13T17:47:50.411Z,14.10
2023-03-13T17:50:21.783Z,14.10
2023-03-13T17:52:51.814Z,14.00
2023-03-13T17:55:20.587Z,14.10
2023-03-13T17:57:49.588Z,14.10
2023-03-13T18:00:23.670Z,14.10
2023-03-13T18:02:52.258Z,14.00
2023-03-13T18:05:20.464Z,14.10
2023-03-13T18:07:49.523Z,14.00
2023-03-13T18:10:22.102Z,14.00
2023-03-13T18:12:51.407Z,13.90
2023-03-13T18:15:20.432Z,13.80
2023-03-13T18:17:49.370Z,13.80
2023-03-13T18:20:20.569Z,13.90
2023-03-13T18:22:48.847Z,13.80
2023-03-13T18:25:17.349Z,13.80
2023-03-13T18:27:47.116Z,13.80
2023-03-13T18:30:17.998Z,13.80
2023-03-13T18:32:47.221Z,13.70
2023-03-13T18:35:16.421Z,13.70
2023-03-13T18:37:46.467Z,13.70
2023-03-13T18:40:19.232Z,13.70
2023-03-13T18:42:48.902Z,13.60
2023-03-13T18:45:18.505Z,13.60
2023-03-13T18:47:48.169Z,13.50
2023-03-13T18:50:25.035Z,13.50
2023-03-13T18:52:55.230Z,13.50
2023-03-13T18:55:24.324Z,13.50
2023-03-13T18:57:54.531Z,13.50
2023-03-13T19:00:26.032Z,13.60
2023-03-13T19:02:54.424Z,13.50
2023-03-13T19:05:22.972Z,13.50
2023-03-13T19:07:51.203Z,13.50
2023-03-13T19:10:24.120Z,13.50
2023-03-13T19:12:55.140Z,13.40
2023-03-13T19:15:26.755Z,13.40
2023-03-13T19:17:56.390Z,13.30
2023-03-13T19:20:25.357Z,13.30
2023-03-13T19:22:55.180Z,13.30
2023-03-13T19:25:24.946Z,13.30
2023-03-13T19:27:54.601Z,13.30
2023-03-13T19:30:25.652Z,13.30
2023-03-13T19:32:54.317Z,13.20
2023-03-13T19:35:22.665Z,13.20
2023-03-13T19:37:51.270Z,13.30
2023-03-13T19:40:22.028Z,13.20
2023-03-13T19:42:50.395Z,13.30
2023-03-13T19:45:21.890Z,13.20
2023-03-13T19:47:50.405Z,13.30
2023-03-13T19:50:20.609Z,13.20
2023-03-13T19:52:48.957Z,13.20
2023-03-13T19:55:17.752Z,13.20
2023-03-13T19:57:46.439Z,13.10
2023-03-13T20:00:22.428Z,13.00
2023-03-13T20:02:52.261Z,13.00
2023-03-13T20:05:20.592Z,12.90
2023-03-13T20:07:49.057Z,12.90
2023-03-13T20:10:17.877Z,12.80
2023-03-13T20:12:46.108Z,12.70
2023-03-13T20:15:14.361Z,12.70
2023-03-13T20:17:44.112Z,12.60
2023-03-13T20:20:13.997Z,12.60
2023-03-13T20:22:42.374Z,12.50
2023-03-13T20:25:11.601Z,12.50
2023-03-13T20:27:40.275Z,12.50
2023-03-13T20:30:09.924Z,12.50
2023-03-13T20:32:49.109Z,12.50
2023-03-13T20:35:26.915Z,12.50
2023-03-13T20:37:57.423Z,12.40
2023-03-13T20:40:25.791Z,12.40
2023-03-13T20:42:54.194Z,12.40
2023-03-13T20:45:23.073Z,12.40
2023-03-13T20:47:51.356Z,12.40
2023-03-13T20:50:19.875Z,12.60
2023-03-13T20:52:49.880Z,12.50
2023-03-13T20:55:18.336Z,12.50
2023-03-13T20:57:46.616Z,12.40
2023-03-13T21:00:15.684Z,12.40
2023-03-13T21:02:44.085Z,12.30
2023-03-13T21:05:12.558Z,12.30
2023-03-13T21:07:40.804Z,12.30
2023-03-13T21:10:12.113Z,12.30
2023-03-13T21:12:40.386Z,12.30
2023-03-13T21:15:10.268Z,12.30
2023-03-13T21:17:39.009Z,12.10
2023-03-13T21:20:11.698Z,12.10
2023-03-13T21:22:40.486Z,12.10
2023-03-13T21:25:12.177Z,12.10
2023-03-13T21:27:43.663Z,12.10
2023-03-13T21:30:15.150Z,12.10
2023-03-13T21:32:43.630Z,12.20
2023-03-13T21:35:13.227Z,12.10
2023-03-13T21:37:42.815Z,12.10
2023-03-13T21:40:13.869Z,12.10
2023-03-13T21:42:42.113Z,12.00
2023-03-13T21:45:11.982Z,12.00
2023-03-13T21:47:40.482Z,11.90
2023-03-13T21:50:11.108Z,12.00
2023-03-13T21:52:41.320Z,12.00
2023-03-13T21:55:13.741Z,12.00
2023-03-13T21:57:42.107Z,11.90
2023-03-13T22:00:13.950Z,11.90
2023-03-13T22:02:42.680Z,11.90
2023-03-13T22:05:11.208Z,11.90
2023-03-13T22:07:39.704Z,11.90
2023-03-13T22:10:08.581Z,11.80
2023-03-13T22:12:38.663Z,11.80
2023-03-13T22:15:12.073Z,11.70
2023-03-13T22:17:40.622Z,11.70
2023-03-13T22:20:10.582Z,11.60
2023-03-13T22:22:38.923Z,11.60
2023-03-13T22:25:07.903Z,11.60
2023-03-13T22:27:36.371Z,11.60
2023-03-13T22:30:07.607Z,11.60
2023-03-13T22:32:35.959Z,11.60
2023-03-13T22:35:04.338Z,11.70
2023-03-13T22:37:32.749Z,11.80
2023-03-13T22:40:01.087Z,11.80
2023-03-13T22:42:29.423Z,11.80
2023-03-13T22:44:57.625Z,11.90
2023-03-13T22:47:27.484Z,11.90
2023-03-13T22:49:55.865Z,12.00
2023-03-13T22:52:29.074Z,12.00
2023-03-13T22:54:57.600Z,12.10
2023-03-13T22:57:25.901Z,12.00
2023-03-13T22:59:54.483Z,12.00
2023-03-13T23:02:22.958Z,12.00
2023-03-13T23:04:52.722Z,12.00
2023-03-13T23:07:22.580Z,12.10
2023-03-13T23:09:50.859Z,12.10
2023-03-13T23:12:19.210Z,12.00
2023-03-13T23:14:47.469Z,12.00
2023-03-13T23:17:16.414Z,12.10
2023-03-13T23:19:44.677Z,12.10
2023-03-13T23:22:17.943Z,12.00
2023-03-13T23:24:46.538Z,11.90
2023-03-13T23:27:14.876Z,11.90
2023-03-13T23:29:43.409Z,11.90
2023-03-13T23:32:11.663Z,11.80
2023-03-13T23:34:40.075Z,11.70
2023-03-13T23:37:08.377Z,11.60
2023-03-13T23:39:38.033Z,11.60
2023-03-13T23:42:06.359Z,11.60
2023-03-13T23:44:34.553Z,11.60
2023-03-13T23:47:03.354Z,11.50
2023-03-13T23:49:32.110Z,11.50
2023-03-13T23:52:01.019Z,11.60
2023-03-13T23:54:29.325Z,11.60
2023-03-13T23:56:58.982Z,11.60
2023-03-13T23:59:27.518Z,11.50
